Gopher, South Dakota
Current Conditions -  °F | °C
As of 9:52 PM on Tuesday 27 Jan 2015 (Local Time) from KMBG Reporting Station
Clear Clear  
Wind Chill: 30°   Ceiling: Unl
Heat Index: 37°   Visibility: 10mi
Dew Point: 33°   Wind: 9mph
Humidity: 86%   Direction: 130°SE
Pressure: 29.79"   Gusts: NA
Location:  45.5528°N, 100.336°W
Report Text: KMBG 280352Z AUTO 13008KT 10SM CLR 03/01 A2979 RMK AO2 SLP103 T00280006
Loading
Personal Weather Stations






























Interactive Weather Map New forecast layout! Learn more

10-Day Weather Forecast

Advertisements
Track Severe Weather on mobile